Dryden, WA

8:04 PM PDT on September 15, 2014 (GMT -0700)
Broadview | Change Station
CLOSE
Current Station
Personal Weather Station
Location: Wenatchee, WA
Elevation: 951 ft
Nearby Weather Stations

Elev 951 ft 47.45 °N, 120.35 °W | Updated 15 seconds ago

Partly Cloudy
Partly Cloudy
71.8 °F
Feels Like 76 °F
N
0.0
Wind Variable Wind from SW
Gusts 0.0 mph

Today
High -- | Low -- °F
--% Chance of Precip.
Yesterday
High -- | Low -- °F
Precip. -- in
6:39 AM 7:14 PM
Waning Gibbous, 50% visible
Pressure 29.85 in
Visibility 10.0 miles
Clouds Clear
Heat Index 76 °F
Dew Point 39 °F
Humidity 30%
Rainfall 0.00 in
Snow Depth 0 in , 1 in , 0 in
UV 0 out of 12
Pollen 2.70 out of 12
Air Quality Not available.
Flu Activity Not available.
METAR KEAT 160255Z AUTO 00000KT 10SM CLR 24/02 A2986 RMK AO2 SLP107 T02390017 55003

More Conditions Fewer Conditions

Pressure 29.85 in
Visibility 10.0 miles
Clouds Clear
Heat Index 76 °F
Dew Point 39 °F
Humidity 30%
Rainfall 0.00 in
Snow Depth 0 in , 1 in , 0 in
UV 0 out of 12
Pollen 2.70 out of 12
Air Quality Not available.
Flu Activity Not available.
METAR KEAT 160255Z AUTO 00000KT 10SM CLR 24/02 A2986 RMK AO2 SLP107 T02390017 55003

More Conditions Fewer Conditions

10-Day Weather Forecast

Almanac

Astronomy

Sep. 15, 2014 Rise Set
Actual Time 6:39 AM PDT 7:14 PM PDT
Civil Twilight 6:08 AM PDT 7:45 PM PDT
Nautical Twilight 5:31 AM PDT 8:21 PM PDT
Astronomical Twilight 4:53 AM PDT 8:59 PM PDT
Moon 11:37 PM PDT (9/15) 2:09 PM PDT (9/15)
Length of Visible Light 13h 36m
Length of Day
12h 34m
Tomorrow will be 3m 24s shorter.
Waning Gibbous, 50% of the Moon is Illuminated
Today
Waning Gibbous
Sep 24
New
Oct 1
First Quarter
Oct 8
Full
Oct 15
Last Quarter

Today's Extremes

State Highs State Lows

Community

WunderPhotos

Upload Photos

1,753,689 photos uploaded!

Nearby

Snow Depth

Station Depth Elevation
Olallie Meadows 0 in 3700 ft
Surprise Lakes 1 in 4250 ft
Sasse Ridge 0 in 4200 ft
Wells Creek 0 in 4200 ft
Trough 0 in 5300 ft

Earthquake Activity

City Distance Mag. Time & Date
No recent earthquake activity has been reported nearby.
Minimum magnitude displayed is 2.5.

Coastal Water Temperatures

Place Temperature
No Stations Reporting

Nearby Weather Stations